sensor_id;sensor_type;location;lat;lon;timestamp;P1;durP1;ratioP1;P2;durP2;ratioP2
16270;SDS011;8243;49.048;8.396;2023-05-07T00:01:28;3.87;;;3.47;;
16270;SDS011;8243;49.048;8.396;2023-05-07T00:03:53;3.40;;;3.10;;
16270;SDS011;8243;49.048;8.396;2023-05-07T00:06:19;4.67;;;3.27;;
16270;SDS011;8243;49.048;8.396;2023-05-07T00:08:45;3.03;;;2.83;;
16270;SDS011;8243;49.048;8.396;2023-05-07T00:11:10;4.40;;;3.37;;
16270;SDS011;8243;49.048;8.396;2023-05-07T00:13:37;3.90;;;3.50;;
16270;SDS011;8243;49.048;8.396;2023-05-07T00:16:03;4.00;;;3.20;;
16270;SDS011;8243;49.048;8.396;2023-05-07T00:18:29;4.13;;;3.73;;
16270;SDS011;8243;49.048;8.396;2023-05-07T00:20:55;3.93;;;3.53;;
16270;SDS011;8243;49.048;8.396;2023-05-07T00:23:21;6.20;;;5.17;;
16270;SDS011;8243;49.048;8.396;2023-05-07T00:25:47;4.90;;;4.50;;
16270;SDS011;8243;49.048;8.396;2023-05-07T00:28:13;7.50;;;4.43;;
16270;SDS011;8243;49.048;8.396;2023-05-07T00:30:39;5.87;;;4.30;;
16270;SDS011;8243;49.048;8.396;2023-05-07T00:33:04;5.90;;;3.90;;
16270;SDS011;8243;49.048;8.396;2023-05-07T00:35:30;5.47;;;4.20;;
16270;SDS011;8243;49.048;8.396;2023-05-07T00:37:56;5.40;;;3.70;;
16270;SDS011;8243;49.048;8.396;2023-05-07T00:40:23;5.10;;;2.90;;
16270;SDS011;8243;49.048;8.396;2023-05-07T00:42:48;4.00;;;3.33;;
16270;SDS011;8243;49.048;8.396;2023-05-07T00:45:15;5.47;;;3.40;;
16270;SDS011;8243;49.048;8.396;2023-05-07T00:47:42;3.93;;;3.50;;
16270;SDS011;8243;49.048;8.396;2023-05-07T00:50:09;3.70;;;2.93;;
16270;SDS011;8243;49.048;8.396;2023-05-07T00:52:35;4.73;;;3.30;;
16270;SDS011;8243;49.048;8.396;2023-05-07T00:55:05;3.80;;;3.13;;
16270;SDS011;8243;49.048;8.396;2023-05-07T00:57:33;8.60;;;3.37;;
16270;SDS011;8243;49.048;8.396;2023-05-07T01:00:03;3.40;;;2.70;;
16270;SDS011;8243;49.048;8.396;2023-05-07T01:02:30;3.67;;;3.27;;
16270;SDS011;8243;49.048;8.396;2023-05-07T01:04:56;3.47;;;2.93;;
16270;SDS011;8243;49.048;8.396;2023-05-07T01:07:21;4.50;;;3.70;;
16270;SDS011;8243;49.048;8.396;2023-05-07T01:09:48;4.23;;;3.13;;
16270;SDS011;8243;49.048;8.396;2023-05-07T01:12:15;4.27;;;3.47;;
16270;SDS011;8243;49.048;8.396;2023-05-07T01:14:41;3.83;;;3.47;;
16270;SDS011;8243;49.048;8.396;2023-05-07T01:17:07;3.83;;;3.13;;
16270;SDS011;8243;49.048;8.396;2023-05-07T01:19:33;3.80;;;3.47;;
16270;SDS011;8243;49.048;8.396;2023-05-07T01:22:07;4.23;;;3.83;;
16270;SDS011;8243;49.048;8.396;2023-05-07T01:24:34;4.40;;;3.20;;
16270;SDS011;8243;49.048;8.396;2023-05-07T01:27:01;3.90;;;3.30;;
16270;SDS011;8243;49.048;8.396;2023-05-07T01:29:27;6.37;;;3.33;;
16270;SDS011;8243;49.048;8.396;2023-05-07T01:31:54;4.10;;;3.47;;
16270;SDS011;8243;49.048;8.396;2023-05-07T01:34:25;3.47;;;3.17;;
16270;SDS011;8243;49.048;8.396;2023-05-07T01:36:57;4.90;;;3.60;;
16270;SDS011;8243;49.048;8.396;2023-05-07T01:39:24;5.17;;;3.80;;
16270;SDS011;8243;49.048;8.396;2023-05-07T01:41:52;5.23;;;3.57;;
16270;SDS011;8243;49.048;8.396;2023-05-07T01:44:24;3.67;;;3.10;;
16270;SDS011;8243;49.048;8.396;2023-05-07T01:46:50;4.30;;;3.90;;
16270;SDS011;8243;49.048;8.396;2023-05-07T01:49:16;4.33;;;3.17;;
16270;SDS011;8243;49.048;8.396;2023-05-07T01:51:44;4.87;;;3.37;;
16270;SDS011;8243;49.048;8.396;2023-05-07T01:54:10;4.40;;;3.50;;
16270;SDS011;8243;49.048;8.396;2023-05-07T01:56:35;3.80;;;3.40;;
16270;SDS011;8243;49.048;8.396;2023-05-07T01:59:01;4.47;;;4.00;;
16270;SDS011;8243;49.048;8.396;2023-05-07T02:01:27;5.47;;;3.63;;
16270;SDS011;8243;49.048;8.396;2023-05-07T02:03:54;4.80;;;4.10;;
16270;SDS011;8243;49.048;8.396;2023-05-07T02:06:20;3.97;;;3.60;;
16270;SDS011;8243;49.048;8.396;2023-05-07T02:08:46;4.27;;;3.87;;
16270;SDS011;8243;49.048;8.396;2023-05-07T02:11:12;5.40;;;4.20;;
16270;SDS011;8243;49.048;8.396;2023-05-07T02:13:38;4.37;;;3.97;;
16270;SDS011;8243;49.048;8.396;2023-05-07T02:16:04;4.70;;;4.20;;
16270;SDS011;8243;49.048;8.396;2023-05-07T02:18:30;5.57;;;4.20;;
16270;SDS011;8243;49.048;8.396;2023-05-07T02:20:56;4.60;;;4.20;;
16270;SDS011;8243;49.048;8.396;2023-05-07T02:23:22;4.37;;;3.97;;
16270;SDS011;8243;49.048;8.396;2023-05-07T02:25:48;4.27;;;3.70;;
16270;SDS011;8243;49.048;8.396;2023-05-07T02:28:14;5.57;;;4.17;;
16270;SDS011;8243;49.048;8.396;2023-05-07T02:30:40;5.67;;;3.57;;
16270;SDS011;8243;49.048;8.396;2023-05-07T02:33:05;4.47;;;4.03;;
16270;SDS011;8243;49.048;8.396;2023-05-07T02:35:33;5.03;;;4.07;;
16270;SDS011;8243;49.048;8.396;2023-05-07T02:37:58;4.10;;;3.63;;
16270;SDS011;8243;49.048;8.396;2023-05-07T02:40:24;4.60;;;4.17;;
16270;SDS011;8243;49.048;8.396;2023-05-07T02:42:49;4.37;;;3.93;;
16270;SDS011;8243;49.048;8.396;2023-05-07T02:45:15;5.77;;;4.17;;
16270;SDS011;8243;49.048;8.396;2023-05-07T02:47:41;5.10;;;4.37;;
16270;SDS011;8243;49.048;8.396;2023-05-07T02:50:06;6.63;;;4.83;;
16270;SDS011;8243;49.048;8.396;2023-05-07T02:52:33;5.63;;;4.20;;
16270;SDS011;8243;49.048;8.396;2023-05-07T02:54:58;5.73;;;4.10;;
16270;SDS011;8243;49.048;8.396;2023-05-07T02:57:24;4.63;;;3.97;;
16270;SDS011;8243;49.048;8.396;2023-05-07T02:59:49;5.07;;;4.30;;
16270;SDS011;8243;49.048;8.396;2023-05-07T03:02:15;5.23;;;4.27;;
16270;SDS011;8243;49.048;8.396;2023-05-07T03:04:41;4.57;;;4.10;;
16270;SDS011;8243;49.048;8.396;2023-05-07T03:07:07;8.20;;;4.33;;
16270;SDS011;8243;49.048;8.396;2023-05-07T03:09:32;5.30;;;3.77;;
16270;SDS011;8243;49.048;8.396;2023-05-07T03:11:58;4.20;;;3.80;;
16270;SDS011;8243;49.048;8.396;2023-05-07T03:14:24;5.00;;;3.97;;
16270;SDS011;8243;49.048;8.396;2023-05-07T03:16:50;5.50;;;3.80;;
16270;SDS011;8243;49.048;8.396;2023-05-07T03:19:15;4.33;;;4.00;;
16270;SDS011;8243;49.048;8.396;2023-05-07T03:21:41;4.00;;;3.70;;
16270;SDS011;8243;49.048;8.396;2023-05-07T03:24:07;4.37;;;4.00;;
16270;SDS011;8243;49.048;8.396;2023-05-07T03:26:33;4.70;;;4.30;;
16270;SDS011;8243;49.048;8.396;2023-05-07T03:28:59;4.53;;;4.10;;
16270;SDS011;8243;49.048;8.396;2023-05-07T03:31:25;5.17;;;4.23;;
16270;SDS011;8243;49.048;8.396;2023-05-07T03:33:54;5.83;;;4.13;;
16270;SDS011;8243;49.048;8.396;2023-05-07T03:36:20;5.83;;;4.60;;
16270;SDS011;8243;49.048;8.396;2023-05-07T03:38:47;4.43;;;4.10;;
16270;SDS011;8243;49.048;8.396;2023-05-07T03:41:13;4.93;;;4.43;;
16270;SDS011;8243;49.048;8.396;2023-05-07T03:43:39;4.60;;;4.20;;
16270;SDS011;8243;49.048;8.396;2023-05-07T03:46:05;4.33;;;3.93;;
16270;SDS011;8243;49.048;8.396;2023-05-07T03:48:31;5.33;;;4.30;;
16270;SDS011;8243;49.048;8.396;2023-05-07T03:50:59;4.47;;;4.13;;
16270;SDS011;8243;49.048;8.396;2023-05-07T03:53:25;4.43;;;4.13;;
16270;SDS011;8243;49.048;8.396;2023-05-07T03:55:50;4.43;;;4.00;;
16270;SDS011;8243;49.048;8.396;2023-05-07T03:58:16;5.00;;;3.87;;
16270;SDS011;8243;49.048;8.396;2023-05-07T04:00:42;4.43;;;4.03;;
16270;SDS011;8243;49.048;8.396;2023-05-07T04:03:07;4.37;;;3.93;;
16270;SDS011;8243;49.048;8.396;2023-05-07T04:05:33;5.70;;;4.10;;
16270;SDS011;8243;49.048;8.396;2023-05-07T04:07:59;4.43;;;4.03;;
16270;SDS011;8243;49.048;8.396;2023-05-07T04:10:26;4.30;;;4.00;;
16270;SDS011;8243;49.048;8.396;2023-05-07T04:12:53;6.30;;;4.33;;
16270;SDS011;8243;49.048;8.396;2023-05-07T04:15:19;4.97;;;4.47;;
16270;SDS011;8243;49.048;8.396;2023-05-07T04:17:45;6.43;;;4.40;;
16270;SDS011;8243;49.048;8.396;2023-05-07T04:20:13;5.47;;;4.17;;
16270;SDS011;8243;49.048;8.396;2023-05-07T04:22:40;4.47;;;4.03;;
16270;SDS011;8243;49.048;8.396;2023-05-07T04:25:06;4.63;;;4.03;;
16270;SDS011;8243;49.048;8.396;2023-05-07T04:27:34;5.57;;;4.20;;
16270;SDS011;8243;49.048;8.396;2023-05-07T04:30:00;4.87;;;4.40;;
16270;SDS011;8243;49.048;8.396;2023-05-07T04:32:28;4.93;;;4.43;;
16270;SDS011;8243;49.048;8.396;2023-05-07T04:34:55;4.30;;;4.00;;
16270;SDS011;8243;49.048;8.396;2023-05-07T04:37:21;4.60;;;4.20;;
16270;SDS011;8243;49.048;8.396;2023-05-07T04:39:47;4.50;;;4.10;;
16270;SDS011;8243;49.048;8.396;2023-05-07T04:42:16;4.40;;;3.97;;
16270;SDS011;8243;49.048;8.396;2023-05-07T04:44:43;4.50;;;4.10;;
16270;SDS011;8243;49.048;8.396;2023-05-07T04:47:09;7.23;;;4.47;;
16270;SDS011;8243;49.048;8.396;2023-05-07T04:49:35;6.20;;;4.30;;
16270;SDS011;8243;49.048;8.396;2023-05-07T04:52:01;6.53;;;4.03;;
16270;SDS011;8243;49.048;8.396;2023-05-07T04:54:28;4.27;;;3.87;;
16270;SDS011;8243;49.048;8.396;2023-05-07T04:56:55;4.77;;;3.90;;
16270;SDS011;8243;49.048;8.396;2023-05-07T04:59:21;4.30;;;3.77;;
16270;SDS011;8243;49.048;8.396;2023-05-07T05:01:46;4.47;;;3.70;;
16270;SDS011;8243;49.048;8.396;2023-05-07T05:04:12;4.33;;;3.70;;
16270;SDS011;8243;49.048;8.396;2023-05-07T05:06:38;4.33;;;3.77;;
16270;SDS011;8243;49.048;8.396;2023-05-07T05:09:04;4.00;;;3.63;;
16270;SDS011;8243;49.048;8.396;2023-05-07T05:11:30;5.50;;;4.10;;
16270;SDS011;8243;49.048;8.396;2023-05-07T05:13:56;4.10;;;3.77;;
16270;SDS011;8243;49.048;8.396;2023-05-07T05:16:27;3.87;;;3.57;;
16270;SDS011;8243;49.048;8.396;2023-05-07T05:18:52;4.20;;;3.80;;
16270;SDS011;8243;49.048;8.396;2023-05-07T05:21:20;3.97;;;3.67;;
16270;SDS011;8243;49.048;8.396;2023-05-07T05:23:46;4.53;;;3.60;;
16270;SDS011;8243;49.048;8.396;2023-05-07T05:26:12;3.37;;;3.07;;
16270;SDS011;8243;49.048;8.396;2023-05-07T05:28:38;3.30;;;3.10;;
16270;SDS011;8243;49.048;8.396;2023-05-07T05:31:04;3.30;;;3.00;;
16270;SDS011;8243;49.048;8.396;2023-05-07T05:33:30;3.70;;;2.90;;
16270;SDS011;8243;49.048;8.396;2023-05-07T05:35:56;3.10;;;2.60;;
16270;SDS011;8243;49.048;8.396;2023-05-07T05:38:21;5.40;;;2.90;;
16270;SDS011;8243;49.048;8.396;2023-05-07T05:40:47;2.70;;;2.50;;
16270;SDS011;8243;49.048;8.396;2023-05-07T05:43:13;3.53;;;2.80;;
16270;SDS011;8243;49.048;8.396;2023-05-07T05:45:40;3.13;;;2.67;;
16270;SDS011;8243;49.048;8.396;2023-05-07T05:48:06;3.87;;;2.27;;
16270;SDS011;8243;49.048;8.396;2023-05-07T05:50:33;4.70;;;2.90;;
16270;SDS011;8243;49.048;8.396;2023-05-07T05:53:00;3.53;;;2.70;;
16270;SDS011;8243;49.048;8.396;2023-05-07T05:55:26;4.30;;;2.73;;
16270;SDS011;8243;49.048;8.396;2023-05-07T05:57:51;4.80;;;3.00;;
16270;SDS011;8243;49.048;8.396;2023-05-07T06:00:17;3.70;;;2.80;;
16270;SDS011;8243;49.048;8.396;2023-05-07T06:02:43;3.03;;;2.73;;
16270;SDS011;8243;49.048;8.396;2023-05-07T06:05:09;3.27;;;2.70;;
16270;SDS011;8243;49.048;8.396;2023-05-07T06:07:34;2.60;;;2.37;;
16270;SDS011;8243;49.048;8.396;2023-05-07T06:10:00;2.60;;;2.40;;
16270;SDS011;8243;49.048;8.396;2023-05-07T06:12:26;5.60;;;2.87;;
16270;SDS011;8243;49.048;8.396;2023-05-07T06:14:52;2.77;;;2.57;;
16270;SDS011;8243;49.048;8.396;2023-05-07T06:17:20;2.97;;;2.50;;
16270;SDS011;8243;49.048;8.396;2023-05-07T06:19:46;2.40;;;2.20;;
16270;SDS011;8243;49.048;8.396;2023-05-07T06:22:12;5.17;;;2.27;;
16270;SDS011;8243;49.048;8.396;2023-05-07T06:24:37;5.03;;;2.20;;
16270;SDS011;8243;49.048;8.396;2023-05-07T06:27:03;3.03;;;2.40;;
16270;SDS011;8243;49.048;8.396;2023-05-07T06:29:30;3.27;;;2.40;;
16270;SDS011;8243;49.048;8.396;2023-05-07T06:32:05;3.77;;;2.30;;
16270;SDS011;8243;49.048;8.396;2023-05-07T06:34:32;2.47;;;2.00;;
16270;SDS011;8243;49.048;8.396;2023-05-07T06:36:58;2.90;;;1.80;;
16270;SDS011;8243;49.048;8.396;2023-05-07T06:39:24;2.33;;;2.13;;
16270;SDS011;8243;49.048;8.396;2023-05-07T06:41:49;3.00;;;2.20;;
16270;SDS011;8243;49.048;8.396;2023-05-07T06:44:15;2.30;;;2.10;;
16270;SDS011;8243;49.048;8.396;2023-05-07T06:46:40;3.00;;;1.83;;
16270;SDS011;8243;49.048;8.396;2023-05-07T06:49:06;3.00;;;2.27;;
16270;SDS011;8243;49.048;8.396;2023-05-07T06:51:33;2.30;;;2.10;;
16270;SDS011;8243;49.048;8.396;2023-05-07T06:53:58;2.83;;;2.00;;
16270;SDS011;8243;49.048;8.396;2023-05-07T06:56:24;1.90;;;1.80;;
16270;SDS011;8243;49.048;8.396;2023-05-07T06:58:51;2.40;;;2.20;;
16270;SDS011;8243;49.048;8.396;2023-05-07T07:01:16;2.83;;;2.17;;
16270;SDS011;8243;49.048;8.396;2023-05-07T07:03:42;2.77;;;1.90;;
16270;SDS011;8243;49.048;8.396;2023-05-07T07:06:08;2.07;;;1.87;;
16270;SDS011;8243;49.048;8.396;2023-05-07T07:08:34;3.07;;;1.90;;
16270;SDS011;8243;49.048;8.396;2023-05-07T07:10:59;3.33;;;1.77;;
16270;SDS011;8243;49.048;8.396;2023-05-07T07:13:25;2.90;;;1.77;;
16270;SDS011;8243;49.048;8.396;2023-05-07T07:15:51;3.20;;;1.97;;
16270;SDS011;8243;49.048;8.396;2023-05-07T07:18:18;2.37;;;1.83;;
16270;SDS011;8243;49.048;8.396;2023-05-07T07:20:43;2.40;;;1.90;;
16270;SDS011;8243;49.048;8.396;2023-05-07T07:23:09;1.70;;;1.60;;
16270;SDS011;8243;49.048;8.396;2023-05-07T07:25:35;1.90;;;1.80;;
16270;SDS011;8243;49.048;8.396;2023-05-07T07:28:01;2.17;;;1.90;;
16270;SDS011;8243;49.048;8.396;2023-05-07T07:30:26;3.77;;;2.90;;
16270;SDS011;8243;49.048;8.396;2023-05-07T07:32:52;3.93;;;1.70;;
16270;SDS011;8243;49.048;8.396;2023-05-07T07:35:18;3.23;;;1.70;;
16270;SDS011;8243;49.048;8.396;2023-05-07T07:37:44;2.63;;;1.97;;
16270;SDS011;8243;49.048;8.396;2023-05-07T07:40:11;4.13;;;1.77;;
16270;SDS011;8243;49.048;8.396;2023-05-07T07:42:37;3.83;;;1.90;;
16270;SDS011;8243;49.048;8.396;2023-05-07T07:45:02;1.97;;;1.87;;
16270;SDS011;8243;49.048;8.396;2023-05-07T07:47:29;2.27;;;1.90;;
16270;SDS011;8243;49.048;8.396;2023-05-07T07:49:58;2.10;;;1.77;;
16270;SDS011;8243;49.048;8.396;2023-05-07T07:52:24;3.47;;;1.80;;
16270;SDS011;8243;49.048;8.396;2023-05-07T07:54:50;2.83;;;1.60;;
16270;SDS011;8243;49.048;8.396;2023-05-07T07:57:15;3.90;;;1.93;;
16270;SDS011;8243;49.048;8.396;2023-05-07T07:59:41;2.53;;;1.80;;
16270;SDS011;8243;49.048;8.396;2023-05-07T08:02:08;2.00;;;1.80;;
16270;SDS011;8243;49.048;8.396;2023-05-07T08:04:34;1.80;;;1.70;;
16270;SDS011;8243;49.048;8.396;2023-05-07T08:07:00;2.10;;;1.90;;
16270;SDS011;8243;49.048;8.396;2023-05-07T08:09:26;3.40;;;2.00;;
16270;SDS011;8243;49.048;8.396;2023-05-07T08:11:51;1.93;;;1.70;;
16270;SDS011;8243;49.048;8.396;2023-05-07T08:14:17;2.07;;;1.80;;
16270;SDS011;8243;49.048;8.396;2023-05-07T08:16:43;2.70;;;1.70;;
16270;SDS011;8243;49.048;8.396;2023-05-07T08:19:08;2.00;;;1.90;;
16270;SDS011;8243;49.048;8.396;2023-05-07T08:21:38;2.43;;;1.83;;
16270;SDS011;8243;49.048;8.396;2023-05-07T08:24:05;1.70;;;1.60;;
16270;SDS011;8243;49.048;8.396;2023-05-07T08:26:30;2.00;;;1.90;;
16270;SDS011;8243;49.048;8.396;2023-05-07T08:28:56;2.57;;;2.00;;
16270;SDS011;8243;49.048;8.396;2023-05-07T08:31:21;4.13;;;2.00;;
16270;SDS011;8243;49.048;8.396;2023-05-07T08:33:47;2.00;;;1.70;;
16270;SDS011;8243;49.048;8.396;2023-05-07T08:36:14;1.90;;;1.80;;
16270;SDS011;8243;49.048;8.396;2023-05-07T08:38:40;2.27;;;2.00;;
16270;SDS011;8243;49.048;8.396;2023-05-07T08:41:09;4.03;;;2.20;;
16270;SDS011;8243;49.048;8.396;2023-05-07T08:43:35;2.63;;;2.00;;
16270;SDS011;8243;49.048;8.396;2023-05-07T08:46:02;3.70;;;2.20;;
16270;SDS011;8243;49.048;8.396;2023-05-07T08:48:30;3.63;;;2.03;;
16270;SDS011;8243;49.048;8.396;2023-05-07T08:50:57;3.10;;;2.20;;
16270;SDS011;8243;49.048;8.396;2023-05-07T08:53:23;2.67;;;2.20;;
16270;SDS011;8243;49.048;8.396;2023-05-07T08:55:50;2.47;;;2.27;;
16270;SDS011;8243;49.048;8.396;2023-05-07T08:58:17;2.10;;;2.00;;
16270;SDS011;8243;49.048;8.396;2023-05-07T09:00:44;3.43;;;2.20;;
16270;SDS011;8243;49.048;8.396;2023-05-07T09:03:12;3.27;;;2.00;;
16270;SDS011;8243;49.048;8.396;2023-05-07T09:05:38;3.63;;;1.90;;
16270;SDS011;8243;49.048;8.396;2023-05-07T09:08:05;2.50;;;2.00;;
16270;SDS011;8243;49.048;8.396;2023-05-07T09:10:33;2.37;;;2.00;;
16270;SDS011;8243;49.048;8.396;2023-05-07T09:12:59;2.50;;;2.30;;
16270;SDS011;8243;49.048;8.396;2023-05-07T09:15:26;2.50;;;1.93;;
16270;SDS011;8243;49.048;8.396;2023-05-07T09:17:53;4.30;;;2.23;;
16270;SDS011;8243;49.048;8.396;2023-05-07T09:20:24;3.87;;;2.10;;
16270;SDS011;8243;49.048;8.396;2023-05-07T09:22:50;4.63;;;2.20;;
16270;SDS011;8243;49.048;8.396;2023-05-07T09:25:16;2.20;;;2.00;;
16270;SDS011;8243;49.048;8.396;2023-05-07T09:27:53;3.30;;;2.30;;
16270;SDS011;8243;49.048;8.396;2023-05-07T09:30:18;2.00;;;1.80;;
16270;SDS011;8243;49.048;8.396;2023-05-07T09:32:44;2.50;;;2.20;;
16270;SDS011;8243;49.048;8.396;2023-05-07T09:35:16;2.63;;;2.00;;
16270;SDS011;8243;49.048;8.396;2023-05-07T09:37:42;3.83;;;2.00;;
16270;SDS011;8243;49.048;8.396;2023-05-07T09:40:11;3.00;;;2.20;;
16270;SDS011;8243;49.048;8.396;2023-05-07T09:42:49;2.50;;;2.30;;
16270;SDS011;8243;49.048;8.396;2023-05-07T09:45:16;2.63;;;2.23;;
16270;SDS011;8243;49.048;8.396;2023-05-07T09:47:47;2.93;;;2.30;;
16270;SDS011;8243;49.048;8.396;2023-05-07T09:50:14;2.63;;;2.30;;
16270;SDS011;8243;49.048;8.396;2023-05-07T09:52:41;2.47;;;2.20;;
16270;SDS011;8243;49.048;8.396;2023-05-07T09:55:08;2.33;;;2.13;;
16270;SDS011;8243;49.048;8.396;2023-05-07T09:57:36;2.33;;;2.10;;
16270;SDS011;8243;49.048;8.396;2023-05-07T10:00:02;2.70;;;2.33;;
16270;SDS011;8243;49.048;8.396;2023-05-07T10:02:33;3.57;;;2.10;;
16270;SDS011;8243;49.048;8.396;2023-05-07T10:05:00;4.37;;;2.10;;
16270;SDS011;8243;49.048;8.396;2023-05-07T10:07:26;2.67;;;2.03;;
16270;SDS011;8243;49.048;8.396;2023-05-07T10:09:53;2.07;;;1.90;;
16270;SDS011;8243;49.048;8.396;2023-05-07T10:12:19;2.47;;;2.20;;
16270;SDS011;8243;49.048;8.396;2023-05-07T10:14:46;2.40;;;2.20;;
16270;SDS011;8243;49.048;8.396;2023-05-07T10:17:13;2.63;;;2.43;;
16270;SDS011;8243;49.048;8.396;2023-05-07T10:19:41;3.43;;;2.40;;
16270;SDS011;8243;49.048;8.396;2023-05-07T10:22:09;4.50;;;2.30;;
16270;SDS011;8243;49.048;8.396;2023-05-07T10:24:36;2.47;;;2.27;;
16270;SDS011;8243;49.048;8.396;2023-05-07T10:27:04;2.90;;;2.40;;
16270;SDS011;8243;49.048;8.396;2023-05-07T10:29:38;2.40;;;2.20;;
16270;SDS011;8243;49.048;8.396;2023-05-07T10:34:39;4.53;;;2.53;;
16270;SDS011;8243;49.048;8.396;2023-05-07T10:37:08;3.27;;;2.30;;
16270;SDS011;8243;49.048;8.396;2023-05-07T10:39:37;2.50;;;2.30;;
16270;SDS011;8243;49.048;8.396;2023-05-07T10:42:13;2.53;;;2.33;;
16270;SDS011;8243;49.048;8.396;2023-05-07T10:44:39;4.83;;;2.37;;
16270;SDS011;8243;49.048;8.396;2023-05-07T10:47:12;3.20;;;2.00;;
16270;SDS011;8243;49.048;8.396;2023-05-07T10:52:23;2.60;;;2.40;;
16270;SDS011;8243;49.048;8.396;2023-05-07T10:57:46;3.57;;;2.53;;
16270;SDS011;8243;49.048;8.396;2023-05-07T11:05:25;2.97;;;2.43;;
16270;SDS011;8243;49.048;8.396;2023-05-07T11:07:58;2.93;;;2.60;;
16270;SDS011;8243;49.048;8.396;2023-05-07T11:13:17;3.77;;;2.50;;
16270;SDS011;8243;49.048;8.396;2023-05-07T11:15:44;2.43;;;1.90;;
16270;SDS011;8243;49.048;8.396;2023-05-07T11:18:15;3.23;;;2.60;;
16270;SDS011;8243;49.048;8.396;2023-05-07T11:20:46;2.67;;;2.47;;
16270;SDS011;8243;49.048;8.396;2023-05-07T11:23:54;2.97;;;2.27;;
16270;SDS011;8243;49.048;8.396;2023-05-07T11:26:06;4.97;;;2.80;;
16270;SDS011;8243;49.048;8.396;2023-05-07T11:28:40;3.30;;;2.60;;
16270;SDS011;8243;49.048;8.396;2023-05-07T11:31:07;2.43;;;2.23;;
16270;SDS011;8243;49.048;8.396;2023-05-07T11:33:34;2.30;;;2.10;;
16270;SDS011;8243;49.048;8.396;2023-05-07T11:36:02;2.57;;;2.33;;
16270;SDS011;8243;49.048;8.396;2023-05-07T11:38:38;3.30;;;2.50;;
16270;SDS011;8243;49.048;8.396;2023-05-07T11:41:04;3.53;;;2.60;;
16270;SDS011;8243;49.048;8.396;2023-05-07T11:43:32;2.40;;;2.20;;
16270;SDS011;8243;49.048;8.396;2023-05-07T11:46:11;2.90;;;2.20;;
16270;SDS011;8243;49.048;8.396;2023-05-07T11:48:37;2.30;;;2.10;;
16270;SDS011;8243;49.048;8.396;2023-05-07T11:51:04;2.20;;;2.00;;
16270;SDS011;8243;49.048;8.396;2023-05-07T11:53:40;3.17;;;2.23;;
16270;SDS011;8243;49.048;8.396;2023-05-07T11:56:09;3.53;;;1.90;;
16270;SDS011;8243;49.048;8.396;2023-05-07T11:58:36;3.37;;;2.00;;
16270;SDS011;8243;49.048;8.396;2023-05-07T12:01:02;3.07;;;1.90;;
16270;SDS011;8243;49.048;8.396;2023-05-07T12:03:28;2.67;;;2.10;;
16270;SDS011;8243;49.048;8.396;2023-05-07T12:05:54;2.27;;;2.10;;
16270;SDS011;8243;49.048;8.396;2023-05-07T12:08:21;2.20;;;1.93;;
16270;SDS011;8243;49.048;8.396;2023-05-07T12:10:48;3.10;;;2.10;;
16270;SDS011;8243;49.048;8.396;2023-05-07T12:13:19;1.90;;;1.70;;
16270;SDS011;8243;49.048;8.396;2023-05-07T12:15:52;2.53;;;2.30;;
16270;SDS011;8243;49.048;8.396;2023-05-07T12:18:19;5.10;;;3.37;;
16270;SDS011;8243;49.048;8.396;2023-05-07T12:20:46;2.13;;;1.90;;
16270;SDS011;8243;49.048;8.396;2023-05-07T12:23:13;3.90;;;2.20;;
16270;SDS011;8243;49.048;8.396;2023-05-07T12:25:40;2.73;;;2.27;;
16270;SDS011;8243;49.048;8.396;2023-05-07T12:28:14;2.40;;;1.93;;
16270;SDS011;8243;49.048;8.396;2023-05-07T12:30:41;2.00;;;1.90;;
16270;SDS011;8243;49.048;8.396;2023-05-07T12:33:10;4.20;;;2.23;;
16270;SDS011;8243;49.048;8.396;2023-05-07T12:35:40;3.40;;;2.20;;
16270;SDS011;8243;49.048;8.396;2023-05-07T12:38:08;2.27;;;1.80;;
16270;SDS011;8243;49.048;8.396;2023-05-07T12:40:38;2.03;;;1.83;;
16270;SDS011;8243;49.048;8.396;2023-05-07T12:43:05;3.07;;;2.40;;
16270;SDS011;8243;49.048;8.396;2023-05-07T12:45:31;2.97;;;2.17;;
16270;SDS011;8243;49.048;8.396;2023-05-07T12:48:01;2.30;;;2.10;;
16270;SDS011;8243;49.048;8.396;2023-05-07T12:50:30;1.63;;;1.53;;
16270;SDS011;8243;49.048;8.396;2023-05-07T12:52:58;3.73;;;1.90;;
16270;SDS011;8243;49.048;8.396;2023-05-07T12:55:24;2.33;;;1.70;;
16270;SDS011;8243;49.048;8.396;2023-05-07T12:57:49;3.37;;;2.20;;
16270;SDS011;8243;49.048;8.396;2023-05-07T13:00:16;2.83;;;2.00;;
16270;SDS011;8243;49.048;8.396;2023-05-07T13:02:43;2.33;;;2.00;;
16270;SDS011;8243;49.048;8.396;2023-05-07T13:05:10;2.47;;;1.73;;
16270;SDS011;8243;49.048;8.396;2023-05-07T13:07:36;2.93;;;2.07;;
16270;SDS011;8243;49.048;8.396;2023-05-07T13:10:03;2.37;;;1.90;;
16270;SDS011;8243;49.048;8.396;2023-05-07T13:12:29;4.00;;;2.17;;
16270;SDS011;8243;49.048;8.396;2023-05-07T13:14:54;2.43;;;1.73;;
16270;SDS011;8243;49.048;8.396;2023-05-07T13:17:20;2.47;;;1.83;;
16270;SDS011;8243;49.048;8.396;2023-05-07T13:19:46;2.70;;;1.63;;
16270;SDS011;8243;49.048;8.396;2023-05-07T13:22:11;3.40;;;1.63;;
16270;SDS011;8243;49.048;8.396;2023-05-07T13:24:37;1.70;;;1.60;;
16270;SDS011;8243;49.048;8.396;2023-05-07T13:27:03;1.93;;;1.73;;
16270;SDS011;8243;49.048;8.396;2023-05-07T13:29:29;2.00;;;1.87;;
16270;SDS011;8243;49.048;8.396;2023-05-07T13:31:58;2.50;;;2.30;;
16270;SDS011;8243;49.048;8.396;2023-05-07T13:34:24;2.57;;;2.30;;
16270;SDS011;8243;49.048;8.396;2023-05-07T13:36:51;3.27;;;2.47;;
16270;SDS011;8243;49.048;8.396;2023-05-07T13:39:17;2.97;;;2.23;;
16270;SDS011;8243;49.048;8.396;2023-05-07T13:41:43;3.07;;;2.70;;
16270;SDS011;8243;49.048;8.396;2023-05-07T13:44:08;2.97;;;2.70;;
16270;SDS011;8243;49.048;8.396;2023-05-07T13:46:34;2.67;;;2.47;;
16270;SDS011;8243;49.048;8.396;2023-05-07T13:48:59;3.30;;;2.90;;
16270;SDS011;8243;49.048;8.396;2023-05-07T13:51:26;6.20;;;3.80;;
16270;SDS011;8243;49.048;8.396;2023-05-07T13:53:51;4.20;;;3.60;;
16270;SDS011;8243;49.048;8.396;2023-05-07T13:56:20;4.23;;;3.37;;
16270;SDS011;8243;49.048;8.396;2023-05-07T13:58:46;3.33;;;3.03;;
16270;SDS011;8243;49.048;8.396;2023-05-07T14:01:11;3.37;;;3.07;;
16270;SDS011;8243;49.048;8.396;2023-05-07T14:03:37;2.90;;;2.60;;
16270;SDS011;8243;49.048;8.396;2023-05-07T14:06:04;5.40;;;2.53;;
16270;SDS011;8243;49.048;8.396;2023-05-07T14:08:30;3.53;;;2.27;;
16270;SDS011;8243;49.048;8.396;2023-05-07T14:10:56;3.30;;;2.37;;
16270;SDS011;8243;49.048;8.396;2023-05-07T14:13:22;5.40;;;2.00;;
16270;SDS011;8243;49.048;8.396;2023-05-07T14:15:48;3.47;;;2.40;;
16270;SDS011;8243;49.048;8.396;2023-05-07T14:18:14;2.30;;;1.97;;
16270;SDS011;8243;49.048;8.396;2023-05-07T14:20:40;2.53;;;2.10;;
16270;SDS011;8243;49.048;8.396;2023-05-07T14:23:08;6.43;;;2.77;;
16270;SDS011;8243;49.048;8.396;2023-05-07T14:25:34;3.40;;;2.90;;
16270;SDS011;8243;49.048;8.396;2023-05-07T14:28:00;5.47;;;3.27;;
16270;SDS011;8243;49.048;8.396;2023-05-07T14:30:25;3.57;;;3.17;;
16270;SDS011;8243;49.048;8.396;2023-05-07T14:32:51;5.37;;;3.10;;
16270;SDS011;8243;49.048;8.396;2023-05-07T14:35:17;5.43;;;3.00;;
16270;SDS011;8243;49.048;8.396;2023-05-07T14:37:43;4.07;;;3.40;;
16270;SDS011;8243;49.048;8.396;2023-05-07T14:40:08;3.70;;;3.30;;
16270;SDS011;8243;49.048;8.396;2023-05-07T14:42:34;4.87;;;3.20;;
16270;SDS011;8243;49.048;8.396;2023-05-07T14:45:00;3.47;;;2.77;;
16270;SDS011;8243;49.048;8.396;2023-05-07T14:47:27;3.30;;;2.70;;
16270;SDS011;8243;49.048;8.396;2023-05-07T14:49:52;5.57;;;2.63;;
16270;SDS011;8243;49.048;8.396;2023-05-07T14:52:19;2.93;;;2.53;;
16270;SDS011;8243;49.048;8.396;2023-05-07T14:54:44;3.37;;;2.03;;
16270;SDS011;8243;49.048;8.396;2023-05-07T14:57:10;2.73;;;2.50;;
16270;SDS011;8243;49.048;8.396;2023-05-07T14:59:38;3.50;;;3.20;;
16270;SDS011;8243;49.048;8.396;2023-05-07T15:02:05;2.13;;;1.93;;
16270;SDS011;8243;49.048;8.396;2023-05-07T15:04:32;2.33;;;1.60;;
16270;SDS011;8243;49.048;8.396;2023-05-07T15:06:58;4.40;;;1.77;;
16270;SDS011;8243;49.048;8.396;2023-05-07T15:09:24;1.97;;;1.60;;
16270;SDS011;8243;49.048;8.396;2023-05-07T15:11:51;3.47;;;2.13;;
16270;SDS011;8243;49.048;8.396;2023-05-07T15:14:17;4.00;;;3.07;;